createdAt,value
2017-04-05T00:00:32.453Z,6.23
2017-04-05T00:01:30.823Z,6.02
2017-04-05T00:02:29.184Z,6.90
2017-04-05T00:03:27.642Z,6.87
2017-04-05T00:04:26.111Z,6.05
2017-04-05T00:05:25.375Z,6.33
2017-04-05T00:06:24.529Z,6.35
2017-04-05T00:07:22.910Z,7.40
2017-04-05T00:08:21.314Z,6.47
2017-04-05T00:09:20.511Z,7.05
2017-04-05T00:10:19.718Z,6.42
2017-04-05T00:11:18.049Z,6.53
2017-04-05T00:12:16.410Z,6.28
2017-04-05T00:13:15.629Z,6.92
2017-04-05T00:14:14.004Z,7.50
2017-04-05T00:15:12.430Z,6.05
2017-04-05T00:16:10.825Z,7.33
2017-04-05T00:17:16.572Z,5.85
2017-04-05T00:18:15.711Z,6.40
2017-04-05T00:19:14.145Z,6.77
2017-04-05T00:20:12.521Z,6.27
2017-04-05T00:21:10.937Z,6.20
2017-04-05T00:22:09.347Z,6.13
2017-04-05T00:23:07.729Z,7.33
2017-04-05T00:24:06.154Z,6.48
2017-04-05T00:25:04.522Z,6.20
2017-04-05T00:26:03.440Z,6.08
2017-04-05T00:27:01.834Z,6.13
2017-04-05T00:28:00.174Z,6.32
2017-04-05T00:28:58.580Z,6.37
2017-04-05T00:29:56.997Z,6.32
2017-04-05T00:30:55.513Z,6.43
2017-04-05T00:31:53.882Z,6.60
2017-04-05T00:32:52.217Z,6.15
2017-04-05T00:33:50.574Z,6.07
2017-04-05T00:34:48.905Z,5.65
2017-04-05T00:35:47.265Z,6.37
2017-04-05T00:36:45.641Z,6.48
2017-04-05T00:37:43.989Z,6.48
2017-04-05T00:38:42.333Z,6.18
2017-04-05T00:39:40.747Z,7.27
2017-04-05T00:40:39.130Z,5.97
2017-04-05T00:41:37.500Z,6.72
2017-04-05T00:42:35.864Z,6.10
2017-04-05T00:43:34.260Z,6.55
2017-04-05T00:44:33.373Z,6.07
2017-04-05T00:45:31.758Z,6.08
2017-04-05T00:46:30.250Z,6.42
2017-04-05T00:47:28.625Z,5.90
2017-04-05T00:48:26.987Z,5.50
2017-04-05T00:49:25.332Z,5.72
2017-04-05T00:50:24.435Z,7.05
2017-04-05T00:51:22.930Z,6.93
2017-04-05T00:52:22.061Z,5.65
2017-04-05T00:53:20.416Z,5.72
2017-04-05T00:54:18.893Z,5.88
2017-04-05T00:55:17.318Z,5.95
2017-04-05T00:56:15.697Z,5.42
2017-04-05T00:57:14.064Z,6.37
2017-04-05T00:58:12.569Z,6.30
2017-04-05T00:59:11.092Z,6.63
2017-04-05T01:00:09.547Z,6.15
2017-04-05T01:01:07.945Z,6.80
2017-04-05T01:02:07.094Z,6.47
2017-04-05T01:03:05.470Z,7.22
2017-04-05T01:04:03.925Z,6.90
2017-04-05T01:05:02.494Z,6.93
2017-04-05T01:06:00.905Z,6.53
2017-04-05T01:07:00.021Z,5.88
2017-04-05T01:07:59.105Z,6.40
2017-04-05T01:08:57.610Z,6.43
2017-04-05T01:09:56.303Z,5.93
2017-04-05T01:10:54.701Z,6.75
2017-04-05T01:11:53.801Z,6.22
2017-04-05T01:12:51.407Z,6.58
2017-04-05T01:13:49.789Z,5.90
2017-04-05T01:14:48.213Z,5.78
2017-04-05T01:15:46.577Z,6.00
2017-04-05T01:16:44.961Z,5.90
2017-04-05T01:17:43.453Z,6.83
2017-04-05T01:18:41.786Z,7.02
2017-04-05T01:19:40.237Z,6.77
2017-04-05T01:20:38.601Z,6.68
2017-04-05T01:21:36.969Z,7.02
2017-04-05T01:22:36.032Z,6.73
2017-04-05T01:23:34.358Z,7.10
2017-04-05T01:24:32.725Z,7.80
2017-04-05T01:25:31.081Z,6.90
2017-04-05T01:26:30.189Z,6.88
2017-04-05T01:27:28.538Z,6.70
2017-04-05T01:28:26.977Z,6.57
2017-04-05T01:29:25.904Z,7.35
2017-04-05T01:30:25.025Z,6.95
2017-04-05T01:31:23.392Z,6.68
2017-04-05T01:32:21.749Z,6.68
2017-04-05T01:33:20.137Z,7.58
2017-04-05T01:34:18.489Z,7.62
2017-04-05T01:35:16.862Z,7.37
2017-04-05T01:36:15.288Z,7.78
2017-04-05T01:37:13.668Z,6.38
2017-04-05T01:38:12.769Z,6.85
2017-04-05T01:39:11.164Z,7.75
2017-04-05T01:40:09.510Z,8.15
2017-04-05T01:41:07.877Z,8.23
2017-04-05T01:42:06.228Z,7.35
2017-04-05T01:43:05.616Z,8.70
2017-04-05T01:44:04.032Z,7.73
2017-04-05T01:45:02.389Z,8.42
2017-04-05T01:46:00.753Z,8.12
2017-04-05T01:46:59.191Z,8.60
2017-04-05T01:47:57.504Z,10.05
2017-04-05T01:48:55.885Z,7.80
2017-04-05T01:49:54.256Z,8.02
2017-04-05T01:50:52.637Z,7.95
2017-04-05T01:51:51.773Z,7.92
2017-04-05T01:52:50.154Z,8.45
2017-04-05T01:53:48.545Z,8.05
2017-04-05T01:54:46.941Z,8.62
2017-04-05T01:55:46.053Z,7.30
2017-04-05T01:56:45.135Z,8.07
2017-04-05T01:57:43.495Z,8.72
2017-04-05T01:58:41.958Z,8.00
2017-04-05T01:59:41.109Z,7.60
2017-04-05T02:00:39.643Z,8.42
2017-04-05T02:01:38.061Z,8.02
2017-04-05T02:02:36.560Z,8.12
2017-04-05T02:03:34.983Z,7.60
2017-04-05T02:04:33.392Z,8.58
2017-04-05T02:05:32.495Z,9.15
2017-04-05T02:06:30.873Z,7.67
2017-04-05T02:07:29.196Z,8.05
2017-04-05T02:08:28.330Z,8.38
2017-04-05T02:09:26.674Z,7.70
2017-04-05T02:10:25.812Z,8.05
2017-04-05T02:11:24.189Z,7.97
2017-04-05T02:12:22.521Z,8.40
2017-04-05T02:13:20.969Z,8.53
2017-04-05T02:14:19.337Z,8.20
2017-04-05T02:15:17.745Z,7.15
2017-04-05T02:16:16.168Z,7.60
2017-04-05T02:17:14.545Z,7.45
2017-04-05T02:18:12.918Z,8.40
2017-04-05T02:19:12.008Z,7.65
2017-04-05T02:20:10.252Z,8.18
2017-04-05T02:21:08.666Z,8.47
2017-04-05T02:22:07.065Z,8.10
2017-04-05T02:23:05.449Z,9.18
2017-04-05T02:24:03.868Z,6.85
2017-04-05T02:25:02.220Z,7.38
2017-04-05T02:26:01.385Z,8.12
2017-04-05T02:27:00.513Z,7.65
2017-04-05T02:27:58.906Z,8.40
2017-04-05T02:28:57.317Z,8.43
2017-04-05T02:29:55.921Z,8.97
2017-04-05T02:30:54.361Z,8.10
2017-04-05T02:31:53.482Z,7.83
2017-04-05T02:32:51.951Z,10.00
2017-04-05T02:33:50.485Z,7.82
2017-04-05T02:34:48.833Z,8.95
2017-04-05T02:35:47.409Z,9.20
2017-04-05T02:36:46.061Z,9.52
2017-04-05T02:37:44.740Z,7.88
2017-04-05T02:38:44.068Z,10.62
2017-04-05T02:39:43.184Z,10.02
2017-04-05T02:40:41.701Z,8.73
2017-04-05T02:41:46.650Z,10.05
2017-04-05T02:42:45.157Z,11.42
2017-04-05T02:43:43.613Z,11.18
2017-04-05T02:44:42.115Z,11.85
2017-04-05T02:45:40.643Z,11.72
2017-04-05T02:46:39.077Z,13.37
2017-04-05T02:47:37.469Z,14.38
2017-04-05T02:48:35.797Z,14.28
2017-04-05T02:49:34.134Z,13.72
2017-04-05T02:50:32.498Z,14.33
2017-04-05T02:51:31.602Z,16.30
2017-04-05T02:52:29.924Z,15.38
2017-04-05T02:53:28.506Z,14.97
2017-04-05T02:54:27.860Z,16.68
2017-04-05T02:55:26.353Z,16.98
2017-04-05T02:56:24.768Z,17.17
2017-04-05T02:57:23.257Z,16.70
2017-04-05T02:58:21.657Z,15.87
2017-04-05T02:59:20.084Z,16.75
2017-04-05T03:00:18.625Z,17.02
2017-04-05T03:01:17.176Z,16.95
2017-04-05T03:02:16.341Z,18.63
2017-04-05T03:03:14.781Z,16.32
2017-04-05T03:04:13.204Z,16.63
2017-04-05T03:05:11.613Z,16.17
2017-04-05T03:06:10.834Z,16.53
2017-04-05T03:07:09.286Z,15.67
2017-04-05T03:08:07.782Z,16.52
2017-04-05T03:09:06.241Z,17.70
2017-04-05T03:10:05.359Z,16.13
2017-04-05T03:11:03.781Z,16.85
2017-04-05T03:12:02.202Z,16.62
2017-04-05T03:13:00.669Z,16.33
2017-04-05T03:13:59.149Z,16.68
2017-04-05T03:14:57.639Z,17.67
2017-04-05T03:15:56.024Z,15.80
2017-04-05T03:16:54.474Z,17.85
2017-04-05T03:17:53.705Z,17.08
2017-04-05T03:18:52.171Z,15.67
2017-04-05T03:19:50.601Z,16.87
2017-04-05T03:20:49.859Z,15.62
2017-04-05T03:21:48.333Z,14.37
2017-04-05T03:22:46.857Z,17.35
2017-04-05T03:23:45.439Z,16.60
2017-04-05T03:24:43.823Z,17.00
2017-04-05T03:25:42.319Z,17.57
2017-04-05T03:26:40.822Z,17.13
2017-04-05T03:27:40.017Z,17.07
2017-04-05T03:28:39.218Z,16.43
2017-04-05T03:29:38.415Z,16.42
2017-04-05T03:30:36.924Z,16.62
2017-04-05T03:31:35.377Z,16.15
2017-04-05T03:32:33.949Z,15.18
2017-04-05T03:33:32.477Z,16.98
2017-04-05T03:34:31.678Z,16.82
2017-04-05T03:35:30.141Z,17.05
2017-04-05T03:36:29.365Z,16.52
2017-04-05T03:37:27.833Z,18.58
2017-04-05T03:38:26.300Z,16.83
2017-04-05T03:39:24.753Z,18.13
2017-04-05T03:40:23.205Z,19.03
2017-04-05T03:41:21.700Z,15.30
2017-04-05T03:42:20.101Z,18.05
2017-04-05T03:43:18.546Z,17.48
2017-04-05T03:44:17.009Z,18.62
2017-04-05T03:45:15.486Z,17.20
2017-04-05T03:46:14.011Z,18.08
2017-04-05T03:47:12.441Z,17.55
2017-04-05T03:48:10.968Z,15.52
2017-04-05T03:49:09.483Z,15.10
2017-04-05T03:50:07.978Z,14.28
2017-04-05T03:51:06.529Z,14.80
2017-04-05T03:52:05.097Z,10.83
2017-04-05T03:53:03.621Z,12.62
2017-04-05T03:54:02.085Z,12.40
2017-04-05T03:55:00.621Z,11.55
2017-04-05T03:55:59.121Z,10.80
2017-04-05T03:56:57.517Z,10.48
2017-04-05T03:57:56.034Z,9.43
2017-04-05T03:58:54.541Z,9.07
2017-04-05T03:59:53.004Z,8.65
2017-04-05T04:00:51.481Z,10.05
2017-04-05T04:01:49.969Z,9.40
2017-04-05T04:02:49.177Z,9.58
2017-04-05T04:03:48.347Z,9.48
2017-04-05T04:04:47.596Z,9.85
2017-04-05T04:05:46.042Z,10.65
2017-04-05T04:06:44.514Z,10.58
2017-04-05T04:07:43.037Z,9.75
2017-04-05T04:08:42.282Z,9.85
2017-04-05T04:09:40.702Z,9.95
2017-04-05T04:10:39.146Z,9.97
2017-04-05T04:11:37.645Z,9.82
2017-04-05T04:12:36.778Z,9.08
2017-04-05T04:13:35.270Z,8.97
2017-04-05T04:14:33.729Z,10.05
2017-04-05T04:15:32.139Z,8.40
2017-04-05T04:16:30.588Z,9.40
2017-04-05T04:17:29.048Z,9.83
2017-04-05T04:18:27.461Z,9.90
2017-04-05T04:19:25.968Z,9.55
2017-04-05T04:20:24.537Z,10.70
2017-04-05T04:21:24.376Z,10.27
2017-04-05T04:22:22.896Z,11.27
2017-04-05T04:23:21.317Z,10.92
2017-04-05T04:24:19.776Z,9.62
2017-04-05T04:25:19.021Z,10.73
2017-04-05T04:26:17.467Z,9.83
2017-04-05T04:27:15.874Z,9.42
2017-04-05T04:28:14.374Z,10.42
2017-04-05T04:29:12.728Z,9.93
2017-04-05T04:30:11.169Z,10.05
2017-04-05T04:31:10.421Z,10.47
2017-04-05T04:32:08.897Z,9.22
2017-04-05T04:33:07.355Z,11.63
2017-04-05T04:34:05.745Z,10.62
2017-04-05T04:35:04.233Z,11.00
2017-04-05T04:36:02.793Z,10.85
2017-04-05T04:37:01.217Z,11.92
2017-04-05T04:37:59.653Z,9.62
2017-04-05T04:38:58.778Z,11.18
2017-04-05T04:39:57.184Z,12.50
2017-04-05T04:40:55.633Z,12.10
2017-04-05T04:41:54.122Z,12.10
2017-04-05T04:42:52.585Z,12.28
2017-04-05T04:43:51.020Z,13.10
2017-04-05T04:44:49.556Z,12.02
2017-04-05T04:45:47.974Z,11.98
2017-04-05T04:46:46.321Z,10.68
2017-04-05T04:47:44.673Z,11.60
2017-04-05T04:48:43.832Z,11.90
2017-04-05T04:49:42.332Z,11.63
2017-04-05T04:50:41.533Z,12.67
2017-04-05T04:51:40.704Z,12.07
2017-04-05T04:52:39.125Z,10.58
2017-04-05T04:53:37.541Z,11.98
2017-04-05T04:54:36.793Z,12.27
2017-04-05T04:55:35.246Z,13.07
2017-04-05T04:56:34.524Z,11.45
2017-04-05T04:57:33.026Z,11.95
2017-04-05T04:58:31.414Z,11.93
2017-04-05T04:59:29.822Z,12.08
2017-04-05T05:00:29.074Z,12.40
2017-04-05T05:01:27.582Z,11.62
2017-04-05T05:02:26.053Z,10.95
2017-04-05T05:03:24.562Z,12.88
2017-04-05T05:04:23.073Z,12.62
2017-04-05T05:05:22.266Z,12.52
2017-04-05T05:06:21.497Z,11.27
2017-04-05T05:07:19.961Z,11.20
2017-04-05T05:08:19.174Z,12.48
2017-04-05T05:09:17.717Z,13.07
2017-04-05T05:10:16.141Z,13.85
2017-04-05T05:11:15.307Z,12.47
2017-04-05T05:12:13.765Z,12.82
2017-04-05T05:13:12.910Z,14.73
2017-04-05T05:14:12.210Z,14.03
2017-04-05T05:15:10.573Z,14.32
2017-04-05T05:16:09.760Z,13.78
2017-04-05T05:17:08.941Z,14.05
2017-04-05T05:18:08.278Z,13.33
2017-04-05T05:19:06.745Z,15.38
2017-04-05T05:20:05.286Z,14.83
2017-04-05T05:21:04.549Z,14.18
2017-04-05T05:22:03.709Z,14.97
2017-04-05T05:23:02.105Z,15.23
2017-04-05T05:24:01.297Z,15.58
2017-04-05T05:25:00.577Z,13.90
2017-04-05T05:25:58.948Z,15.25
2017-04-05T05:26:58.173Z,15.87
2017-04-05T05:27:57.331Z,15.37
2017-04-05T05:28:55.772Z,16.62
2017-04-05T05:29:54.281Z,15.37
2017-04-05T05:30:52.696Z,15.85
2017-04-05T05:31:51.095Z,15.38
2017-04-05T05:32:49.577Z,13.97
2017-04-05T05:33:48.897Z,15.83
2017-04-05T05:34:47.437Z,16.20
2017-04-05T05:35:46.712Z,15.22
2017-04-05T05:36:45.154Z,14.70
2017-04-05T05:37:43.567Z,14.75
2017-04-05T05:38:41.971Z,14.68
2017-04-05T05:39:40.361Z,13.55
2017-04-05T05:40:38.741Z,13.53
2017-04-05T05:41:37.283Z,14.00
2017-04-05T05:42:35.743Z,14.00
2017-04-05T05:43:34.142Z,12.82
2017-04-05T05:44:33.323Z,13.28
2017-04-05T05:45:31.745Z,12.83
2017-04-05T05:46:30.161Z,12.95
2017-04-05T05:47:28.546Z,14.57
2017-04-05T05:48:27.757Z,13.53
2017-04-05T05:49:26.228Z,12.85
2017-04-05T05:50:24.714Z,12.58
2017-04-05T05:51:24.031Z,12.28
2017-04-05T05:52:22.519Z,14.20
2017-04-05T05:53:21.725Z,12.18
2017-04-05T05:54:20.166Z,13.35
2017-04-05T05:55:19.312Z,13.50
2017-04-05T05:56:17.747Z,13.93
2017-04-05T05:57:16.245Z,14.65
2017-04-05T05:58:14.691Z,13.13
2017-04-05T05:59:14.073Z,15.93
2017-04-05T06:00:12.636Z,14.27
2017-04-05T06:01:11.120Z,14.98
2017-04-05T06:02:10.376Z,15.45
2017-04-05T06:03:09.557Z,16.15
2017-04-05T06:04:08.719Z,15.47
2017-04-05T06:05:07.178Z,15.20
2017-04-05T06:06:05.635Z,15.82
2017-04-05T06:07:04.769Z,17.27
2017-04-05T06:08:03.951Z,17.33
2017-04-05T06:09:03.396Z,16.28
2017-04-05T06:10:01.802Z,17.45
2017-04-05T06:11:00.266Z,18.77
2017-04-05T06:11:58.733Z,18.23
2017-04-05T06:12:57.204Z,18.20
2017-04-05T06:13:55.634Z,17.30
2017-04-05T06:14:54.804Z,17.90
2017-04-05T06:15:53.205Z,17.32
2017-04-05T06:16:51.597Z,18.42
2017-04-05T06:17:50.204Z,19.25
2017-04-05T06:18:48.614Z,21.62
2017-04-05T06:19:47.061Z,20.85
2017-04-05T06:20:45.534Z,21.85
2017-04-05T06:21:44.766Z,21.98
2017-04-05T06:22:43.241Z,20.93
2017-04-05T06:23:41.703Z,19.57
2017-04-05T06:24:40.111Z,20.65
2017-04-05T06:25:38.495Z,22.62
2017-04-05T06:26:37.639Z,22.70
2017-04-05T06:27:36.038Z,22.65
2017-04-05T06:28:34.458Z,21.97
2017-04-05T06:29:32.830Z,21.80
2017-04-05T06:30:31.994Z,20.77
2017-04-05T06:31:30.461Z,21.87
2017-04-05T06:32:28.838Z,21.63
2017-04-05T06:33:27.319Z,22.87
2017-04-05T06:34:25.697Z,24.08
2017-04-05T06:35:24.106Z,23.32
2017-04-05T06:36:22.460Z,23.65
2017-04-05T06:37:20.893Z,23.07
2017-04-05T06:38:20.091Z,23.00
2017-04-05T06:39:18.575Z,25.72
2017-04-05T06:40:17.031Z,23.13
2017-04-05T06:41:15.435Z,24.73
2017-04-05T06:42:13.977Z,24.03
2017-04-05T06:43:12.326Z,22.97
2017-04-05T06:44:10.728Z,25.07
2017-04-05T06:45:09.159Z,23.35
2017-04-05T06:46:08.268Z,23.17
2017-04-05T06:47:06.678Z,24.53
2017-04-05T06:48:05.151Z,24.95
2017-04-05T06:49:03.604Z,23.77
2017-04-05T06:50:02.005Z,26.28
2017-04-05T06:51:01.345Z,25.25
2017-04-05T06:51:59.753Z,25.22
2017-04-05T06:52:58.197Z,24.97
2017-04-05T06:53:57.357Z,25.55
2017-04-05T06:54:55.746Z,23.83
2017-04-05T06:55:54.202Z,26.33
2017-04-05T06:56:53.402Z,25.53
2017-04-05T06:57:51.794Z,25.48
2017-04-05T06:58:50.187Z,25.75
2017-04-05T06:59:48.618Z,25.47
2017-04-05T07:00:47.081Z,26.78
2017-04-05T07:01:45.473Z,27.40
2017-04-05T07:02:43.948Z,28.15
2017-04-05T07:03:42.353Z,25.70
2017-04-05T07:04:41.507Z,25.18
2017-04-05T07:05:39.959Z,27.18
2017-04-05T07:06:38.305Z,25.78
2017-04-05T07:07:36.694Z,27.88
2017-04-05T07:08:35.865Z,27.87
2017-04-05T07:09:34.293Z,26.73
2017-04-05T07:10:32.677Z,25.00
2017-04-05T07:11:31.813Z,25.37
2017-04-05T07:12:30.168Z,27.15
2017-04-05T07:13:28.541Z,27.12
2017-04-05T07:14:27.089Z,27.80
2017-04-05T07:15:26.194Z,27.67
2017-04-05T07:16:24.583Z,24.75
2017-04-05T07:17:22.973Z,24.93
2017-04-05T07:18:21.336Z,26.45
2017-04-05T07:19:19.717Z,25.83
2017-04-05T07:20:18.093Z,25.60
2017-04-05T07:21:17.422Z,24.93
2017-04-05T07:22:15.822Z,24.32
2017-04-05T07:23:14.309Z,25.57
2017-04-05T07:24:12.687Z,26.93
2017-04-05T07:25:11.897Z,25.73
2017-04-05T07:26:10.355Z,24.15
2017-04-05T07:27:08.813Z,27.30
2017-04-05T07:28:07.247Z,25.10
2017-04-05T07:29:06.401Z,27.72
2017-04-05T07:30:04.926Z,26.03
2017-04-05T07:31:03.517Z,24.50
2017-04-05T07:32:02.694Z,25.92
2017-04-05T07:33:01.183Z,24.50
2017-04-05T07:33:59.754Z,25.83
2017-04-05T07:34:58.183Z,24.02
2017-04-05T07:35:56.607Z,25.15
2017-04-05T07:36:55.725Z,25.30
2017-04-05T07:37:54.221Z,25.20
2017-04-05T07:38:52.620Z,24.92
2017-04-05T07:39:51.001Z,24.78
2017-04-05T07:40:49.393Z,25.98
2017-04-05T07:41:48.608Z,25.85
2017-04-05T07:42:47.010Z,23.67
2017-04-05T07:43:45.433Z,23.88
2017-04-05T07:44:43.845Z,24.10
2017-04-05T07:45:42.274Z,23.43
2017-04-05T07:46:40.734Z,24.32
2017-04-05T07:47:39.133Z,23.35
2017-04-05T07:48:37.589Z,23.72
2017-04-05T07:49:36.084Z,23.68
2017-04-05T07:50:35.289Z,24.92
2017-04-05T07:51:33.706Z,25.73
2017-04-05T07:52:32.212Z,25.80
2017-04-05T07:53:30.634Z,26.25
2017-04-05T07:54:29.069Z,24.03
2017-04-05T07:55:28.229Z,26.03
2017-04-05T07:56:26.661Z,23.70
2017-04-05T07:57:25.080Z,25.98
2017-04-05T07:58:23.590Z,26.32
2017-04-05T07:59:22.003Z,25.72
2017-04-05T08:00:20.426Z,26.85
2017-04-05T08:01:18.998Z,25.45
2017-04-05T08:02:17.545Z,23.72
2017-04-05T08:03:15.941Z,23.90
2017-04-05T08:04:14.469Z,26.08
2017-04-05T08:05:12.844Z,24.48
2017-04-05T08:06:11.229Z,23.75
2017-04-05T08:07:09.653Z,24.40
2017-04-05T08:08:08.104Z,24.85
2017-04-05T08:09:07.273Z,23.57
2017-04-05T08:10:05.757Z,24.52
2017-04-05T08:11:05.127Z,23.45
2017-04-05T08:12:04.305Z,22.02
2017-04-05T08:13:02.754Z,24.97
2017-04-05T08:14:01.359Z,24.78
2017-04-05T08:14:59.785Z,23.82
2017-04-05T08:15:58.145Z,24.85
2017-04-05T08:16:56.548Z,24.00
2017-04-05T08:17:54.997Z,24.77
2017-04-05T08:18:53.366Z,26.00
2017-04-05T08:19:51.846Z,24.05
2017-04-05T08:20:50.228Z,26.68
2017-04-05T08:21:49.111Z,26.33
2017-04-05T08:22:47.575Z,27.28
2017-04-05T08:23:45.913Z,26.15
2017-04-05T08:24:44.268Z,25.03
2017-04-05T08:25:42.673Z,23.07
2017-04-05T08:26:41.046Z,22.52
2017-04-05T08:27:40.047Z,25.15
2017-04-05T08:28:38.421Z,24.98
2017-04-05T08:29:36.757Z,24.65
2017-04-05T08:30:35.305Z,23.28
2017-04-05T08:31:33.679Z,24.17
2017-04-05T08:32:32.041Z,24.78
2017-04-05T08:33:30.393Z,25.83
2017-04-05T08:34:28.690Z,23.55
2017-04-05T08:35:27.145Z,23.38
2017-04-05T08:36:25.517Z,23.85
2017-04-05T08:37:23.923Z,22.90
2017-04-05T08:38:22.373Z,23.10
2017-04-05T08:39:20.714Z,22.13
2017-04-05T08:40:19.765Z,23.68
2017-04-05T08:41:18.092Z,23.83
2017-04-05T08:42:16.501Z,24.22
2017-04-05T09:00:49.573Z,23.30
2017-04-05T09:01:47.900Z,21.77
2017-04-05T09:02:46.197Z,21.38
2017-04-05T09:03:44.546Z,23.20
2017-04-05T09:04:42.888Z,21.93
2017-04-05T09:05:41.209Z,22.47
2017-04-05T09:06:39.617Z,22.23
2017-04-05T09:07:38.009Z,21.08
2017-04-05T09:08:36.396Z,21.85
2017-04-05T09:09:35.477Z,22.87
2017-04-05T09:10:33.789Z,21.63
2017-04-05T09:11:32.116Z,22.48
2017-04-05T09:12:30.945Z,22.20
2017-04-05T09:13:29.301Z,24.42
2017-04-05T09:14:27.760Z,23.48
2017-04-05T09:15:26.109Z,23.10
2017-04-05T09:16:24.489Z,22.85
2017-04-05T09:17:22.856Z,22.32
2017-04-05T09:18:21.264Z,22.57
2017-04-05T09:19:19.621Z,22.40
2017-04-05T09:20:17.912Z,23.00
2017-04-05T09:21:16.229Z,21.65
2017-04-05T09:22:14.608Z,22.92
2017-04-05T09:23:12.957Z,22.98
2017-04-05T09:24:11.352Z,22.33
2017-04-05T09:25:09.717Z,23.33
2017-04-05T09:26:08.117Z,22.57
2017-04-05T09:27:06.421Z,21.92
2017-04-05T09:28:05.437Z,23.08
2017-04-05T09:29:03.729Z,21.20
2017-04-05T09:30:02.373Z,22.40
2017-04-05T09:31:00.624Z,23.42
2017-04-05T09:31:58.918Z,23.05
2017-04-05T09:33:09.575Z,21.45
2017-04-05T09:34:07.829Z,21.80
2017-04-05T09:35:06.872Z,22.82
2017-04-05T09:36:17.585Z,22.18
2017-04-05T09:37:26.316Z,22.58
2017-04-05T09:38:24.609Z,24.05
2017-04-05T09:39:23.753Z,23.67
2017-04-05T09:40:32.453Z,22.17
2017-04-05T09:41:30.713Z,23.48
2017-04-05T09:42:29.000Z,21.38
2017-04-05T09:43:40.137Z,22.18
2017-04-05T09:44:48.750Z,20.95
2017-04-05T09:45:57.457Z,21.42
2017-04-05T09:46:55.704Z,23.78
2017-04-05T09:47:53.976Z,24.62
2017-04-05T09:49:11.060Z,23.08
2017-04-05T09:50:09.424Z,23.65
2017-04-05T09:51:20.269Z,22.78
2017-04-05T09:52:35.417Z,23.13
2017-04-05T09:53:50.614Z,23.20
2017-04-05T09:54:49.493Z,22.73
2017-04-05T09:55:47.809Z,21.92
2017-04-05T09:56:46.911Z,23.35
2017-04-05T09:57:57.325Z,23.82
2017-04-05T09:58:55.560Z,24.38
2017-04-05T10:00:06.046Z,24.03
2017-04-05T10:01:15.000Z,23.58
2017-04-05T10:02:25.806Z,23.73
2017-04-05T10:03:24.101Z,23.87
2017-04-05T10:04:22.368Z,23.32
2017-04-05T10:05:37.521Z,22.33
2017-04-05T10:06:47.885Z,22.45
2017-04-05T10:08:06.552Z,21.70
2017-04-05T10:09:05.292Z,24.15
2017-04-05T10:10:03.577Z,21.80
2017-04-05T10:11:01.833Z,20.82
2017-04-05T10:12:00.100Z,21.58
2017-04-05T10:12:58.365Z,24.58
2017-04-05T10:13:56.676Z,20.85
2017-04-05T10:14:54.960Z,24.37
2017-04-05T10:16:06.001Z,23.52
2017-04-05T10:17:04.248Z,23.02
2017-04-05T10:18:08.981Z,22.63
2017-04-05T10:19:07.534Z,23.33
2017-04-05T10:20:18.270Z,23.78
2017-04-05T10:21:16.544Z,23.65
2017-04-05T10:22:14.804Z,22.08
2017-04-05T10:23:13.784Z,24.43
2017-04-05T10:24:12.089Z,22.75
2017-04-05T10:25:10.352Z,24.10
2017-04-05T10:26:21.481Z,21.93
2017-04-05T10:27:20.469Z,22.18
2017-04-05T10:28:18.725Z,22.42
2017-04-05T10:29:17.740Z,22.08
2017-04-05T10:30:29.181Z,22.37
2017-04-05T10:31:28.193Z,23.60
2017-04-05T10:32:26.440Z,21.50
2017-04-05T10:33:24.934Z,21.60
2017-04-05T10:34:25.117Z,21.77
2017-04-05T10:35:23.641Z,21.53
2017-04-05T10:36:21.841Z,21.85
2017-04-05T10:37:21.036Z,22.08
2017-04-05T10:38:19.650Z,22.00
2017-04-05T10:39:17.895Z,22.85
2017-04-05T10:40:16.351Z,20.32
2017-04-05T10:41:14.585Z,22.38
2017-04-05T10:42:25.360Z,20.55
2017-04-05T10:43:23.605Z,22.30
2017-04-05T10:44:21.860Z,22.45
2017-04-05T10:45:20.665Z,24.38
2017-04-05T10:46:19.044Z,22.67
2017-04-05T10:47:18.349Z,21.93
2017-04-05T10:48:16.606Z,21.50
2017-04-05T10:49:15.620Z,22.47
2017-04-05T10:50:13.872Z,22.48
2017-04-05T10:51:12.377Z,21.72
2017-04-05T10:52:10.665Z,19.85
2017-04-05T10:53:21.453Z,20.35
2017-04-05T10:54:20.505Z,22.07
2017-04-05T10:55:18.749Z,20.42
2017-04-05T10:56:17.020Z,21.58
2017-04-05T10:57:15.282Z,19.98
2017-04-05T10:58:13.556Z,19.98
2017-04-05T10:59:11.846Z,20.48
2017-04-05T11:00:10.124Z,21.07
2017-04-05T11:01:08.430Z,18.85
2017-04-05T11:02:07.004Z,21.78
2017-04-05T11:03:05.252Z,19.97
2017-04-05T11:04:03.565Z,19.13
2017-04-05T11:05:01.826Z,20.02
2017-04-05T11:06:00.133Z,18.35
2017-04-05T11:06:59.204Z,18.78
2017-04-05T11:07:57.528Z,19.15
2017-04-05T11:08:55.820Z,18.38
2017-04-05T11:09:54.126Z,19.60
2017-04-05T11:10:53.148Z,19.13
2017-04-05T11:11:51.430Z,20.75
2017-04-05T11:12:49.760Z,20.87
2017-04-05T11:13:48.768Z,18.30
2017-04-05T11:14:47.036Z,19.75
2017-04-05T11:15:45.314Z,20.23
2017-04-05T11:16:43.557Z,19.45
2017-04-05T11:17:41.795Z,18.38
2017-04-05T11:18:40.800Z,18.55
2017-04-05T11:19:39.079Z,19.55
2017-04-05T11:20:37.322Z,19.18
2017-04-05T11:21:35.573Z,17.58
2017-04-05T11:22:33.820Z,17.95
2017-04-05T11:23:32.089Z,17.23
2017-04-05T11:24:30.364Z,15.30
2017-04-05T11:25:29.429Z,16.25
2017-04-05T11:26:27.660Z,15.77
2017-04-05T11:27:26.644Z,15.25
2017-04-05T11:28:24.909Z,15.75
2017-04-05T11:29:23.156Z,16.90
2017-04-05T11:30:22.304Z,15.68
2017-04-05T11:31:20.566Z,15.42
2017-04-05T11:32:18.840Z,17.20
2017-04-05T11:33:18.018Z,14.18
2017-04-05T11:34:16.284Z,16.83
2017-04-05T11:35:14.586Z,17.52
2017-04-05T11:36:12.985Z,18.85
2017-04-05T11:37:11.329Z,16.78
2017-04-05T11:38:10.368Z,15.83
2017-04-05T11:39:08.649Z,16.92
2017-04-05T11:40:06.965Z,16.08
2017-04-05T11:41:05.228Z,15.73
2017-04-05T11:42:03.744Z,15.25
2017-04-05T11:43:02.000Z,15.78
2017-04-05T11:44:00.240Z,16.13
2017-04-05T11:44:58.481Z,14.57
2017-04-05T11:45:57.457Z,14.35
2017-04-05T11:46:56.291Z,14.13
2017-04-05T11:47:55.080Z,14.65
2017-04-05T11:48:53.340Z,15.20
2017-04-05T11:49:51.616Z,14.82
2017-04-05T11:50:49.864Z,12.75
2017-04-05T11:51:48.092Z,14.98
2017-04-05T11:52:46.356Z,12.23
2017-04-05T11:53:44.628Z,13.27
2017-04-05T11:54:42.928Z,13.83
2017-04-05T11:55:41.168Z,14.48
2017-04-05T11:56:39.394Z,13.42
2017-04-05T11:57:37.629Z,13.80
2017-04-05T11:58:35.905Z,13.65
2017-04-05T11:59:34.183Z,12.78
2017-04-05T12:00:32.469Z,12.82
2017-04-05T12:01:31.477Z,14.15
2017-04-05T12:02:29.737Z,14.02
2017-04-05T12:03:28.073Z,13.40
2017-04-05T12:04:27.079Z,14.17
2017-04-05T12:05:26.113Z,13.97
2017-04-05T12:06:24.389Z,14.00
2017-04-05T12:07:22.661Z,14.65
2017-04-05T12:08:20.943Z,13.77
2017-04-05T12:09:19.986Z,13.50
2017-04-05T12:10:18.224Z,14.52
2017-04-05T12:11:16.696Z,14.43
2017-04-05T12:12:15.088Z,15.15
2017-04-05T12:13:13.364Z,16.03
2017-04-05T12:14:11.640Z,16.38
2017-04-05T12:15:09.918Z,15.90
2017-04-05T12:16:08.202Z,15.80
2017-04-05T12:17:06.981Z,15.20
2017-04-05T12:18:05.233Z,15.68
2017-04-05T12:19:03.501Z,14.83
2017-04-05T12:20:01.752Z,13.57
2017-04-05T12:20:59.998Z,13.58
2017-04-05T12:21:58.299Z,13.52
2017-04-05T12:22:56.551Z,13.30
2017-04-05T12:23:54.826Z,12.72
2017-04-05T12:24:53.058Z,14.40
2017-04-05T12:25:51.392Z,14.27
2017-04-05T12:26:50.960Z,14.17
2017-04-05T12:27:49.571Z,15.22
2017-04-05T12:28:48.548Z,14.88
2017-04-05T12:29:47.511Z,16.50
2017-04-05T12:30:46.497Z,14.82
2017-04-05T12:31:45.521Z,13.60
2017-04-05T12:32:43.779Z,13.87
2017-04-05T12:33:42.042Z,14.83
2017-04-05T12:34:40.296Z,14.18
2017-04-05T12:35:37.877Z,14.37
2017-04-05T12:36:36.124Z,13.50
2017-04-05T12:37:34.360Z,14.37
2017-04-05T12:38:33.365Z,14.22
2017-04-05T12:39:31.648Z,13.07
2017-04-05T12:40:29.896Z,14.03
2017-04-05T12:41:28.152Z,14.25
2017-04-05T12:42:27.216Z,15.22
2017-04-05T12:45:21.256Z,13.47
2017-04-05T12:46:19.512Z,13.70
2017-04-05T12:47:17.781Z,14.57
2017-04-05T12:48:16.040Z,14.10
2017-04-05T12:49:14.313Z,13.67
2017-04-05T12:50:12.574Z,13.58
2017-04-05T12:51:11.124Z,13.93
2017-04-05T12:52:09.392Z,15.37
2017-04-05T12:53:07.649Z,14.30
2017-04-05T12:54:05.888Z,13.45
2017-04-05T12:55:04.161Z,13.63
2017-04-05T12:56:02.415Z,15.22
2017-04-05T12:57:00.677Z,13.37
2017-04-05T12:57:58.908Z,14.05
2017-04-05T12:58:57.171Z,13.53
2017-04-05T12:59:55.447Z,14.00
2017-04-05T13:00:53.753Z,13.55
2017-04-05T13:01:52.036Z,14.53
2017-04-05T13:02:50.257Z,16.40
2017-04-05T13:03:48.573Z,15.85
2017-04-05T13:04:46.802Z,15.85